Time;durP1;ratioP1;P1;durP2;ratioP2;P2;SDS_P1;SDS_P2;PMS_P1;PMS_P2;Temp;Humidity;BMP_temperature;BMP_pressure;BME280_temperature;BME280_humidity;BME280_pressure;Samples;Min_cycle;Max_cycle;Signal;HPM_P1;HPM_P2
2022/01/16 00:00:18;;;;;;;15.23;2.53;;;;;;;0.73;54.53;96078.50;4959294;28;20103;-61
2022/01/16 00:05:25;;;;;;;16.67;2.45;;;;;;;0.73;53.82;96032.13;4956938;28;20445;-60
2022/01/16 00:07:50;;;;;;;25.48;2.40;;;;;;;0.71;54.19;96039.28;4966918;28;20182;-61
2022/01/16 00:10:19;;;;;;;11.73;2.20;;;;;;;0.66;54.03;96046.63;4966779;28;20095;-61
2022/01/16 00:12:48;;;;;;;16.75;2.38;;;;;;;0.70;54.36;96052.47;4954713;28;20440;-61
2022/01/16 00:15:17;;;;;;;5.93;2.15;;;;;;;0.72;54.84;96067.16;4956236;28;20083;-60
2022/01/16 00:18:10;;;;;;;;;;;;;;;0.67;54.05;96076.28;4962167;28;20107;-62
2022/01/16 00:20:31;;;;;;;21.20;2.23;;;;;;;0.65;53.82;96068.50;4948927;28;20018;-60
2022/01/16 00:22:57;;;;;;;6.43;2.03;;;;;;;0.66;54.92;96062.34;4958407;28;20188;-61
2022/01/16 00:25:22;;;;;;;5.90;2.10;;;;;;;0.61;54.59;96055.75;4963023;28;20535;-62
2022/01/16 00:27:48;;;;;;;52.30;4.00;;;;;;;0.61;51.49;96063.59;4963099;28;20094;-62
2022/01/16 00:30:14;;;;;;;34.33;2.42;;;;;;;0.53;54.51;96061.50;4953297;28;20135;-61
2022/01/16 00:32:39;;;;;;;72.60;2.97;;;;;;;0.38;51.77;96050.28;4960540;28;20083;-60
2022/01/16 00:35:05;;;;;;;22.27;2.22;;;;;;;-0.60;56.46;96054.81;4959566;28;20099;-62
2022/01/16 00:37:30;;;;;;;25.90;2.33;;;;;;;-0.06;56.94;96050.53;4966736;28;20123;-61
2022/01/16 00:39:56;;;;;;;6.78;2.42;;;;;;;0.28;55.49;96036.97;4967916;28;20071;-61
2022/01/16 00:42:21;;;;;;;27.23;2.53;;;;;;;0.22;53.44;96048.69;4978027;28;20742;-61
2022/01/16 00:44:47;;;;;;;11.02;2.10;;;;;;;0.36;55.52;96052.16;4966872;28;20102;-61
2022/01/16 00:47:12;;;;;;;14.63;2.42;;;;;;;0.40;53.24;96054.47;4965438;28;20493;-59
2022/01/16 00:49:39;;;;;;;14.68;2.25;;;;;;;0.41;55.29;96050.06;4973811;28;20118;-62
2022/01/16 00:52:07;;;;;;;12.95;2.40;;;;;;;0.49;55.31;96054.78;4968944;28;20415;-62
2022/01/16 00:54:33;;;;;;;19.30;2.17;;;;;;;0.53;55.29;96051.00;4962613;28;20177;-61
2022/01/16 00:56:58;;;;;;;17.00;2.10;;;;;;;0.41;54.93;96050.91;4964030;28;20581;-60
2022/01/16 00:59:24;;;;;;;32.95;2.53;;;;;;;0.48;54.69;96027.72;4957290;28;20145;-63
2022/01/16 01:01:50;;;;;;;18.20;2.10;;;;;;;0.46;53.44;96063.69;4957768;28;20466;-62
2022/01/16 01:04:15;;;;;;;9.23;1.98;;;;;;;0.46;55.11;96046.22;4965043;28;20103;-61
2022/01/16 01:06:41;;;;;;;8.75;1.92;;;;;;;0.47;55.31;96037.41;4966467;28;20690;-62
2022/01/16 01:09:06;;;;;;;30.60;2.05;;;;;;;0.52;54.76;96024.00;4963929;28;20281;-59
2022/01/16 01:11:32;;;;;;;14.50;1.90;;;;;;;0.46;53.24;96021.78;4961301;28;20530;-63
2022/01/16 01:16:24;;;;;;;41.13;2.65;;;;;;;0.41;53.34;96022.06;4955725;28;20084;-63
2022/01/16 01:18:49;;;;;;;14.82;2.10;;;;;;;0.34;55.11;96026.06;4947643;28;20182;-64
2022/01/16 01:21:28;;;;;;;17.80;2.10;;;;;;;0.22;55.18;96027.72;4963667;28;20107;-64
2022/01/16 01:23:54;;;;;;;;;;;;;;;0.27;51.86;96037.91;4954765;28;20075;-63
2022/01/16 01:26:24;;;;;;;16.10;2.28;;;;;;;0.34;54.88;96042.63;4960430;28;20041;-62
2022/01/16 01:28:49;;;;;;;2.45;1.90;;;;;;;0.31;55.44;96037.59;4950854;28;20086;-60
2022/01/16 01:31:15;;;;;;;13.10;2.28;;;;;;;0.43;54.52;96009.72;4973444;28;20098;-63
2022/01/16 01:33:40;;;;;;;14.43;2.13;;;;;;;0.44;54.01;95952.91;4952796;28;20107;-63
2022/01/16 01:36:05;;;;;;;34.97;2.80;;;;;;;0.33;53.84;95936.16;4962745;28;20179;-63
2022/01/16 01:38:31;;;;;;;9.93;2.42;;;;;;;0.30;55.27;95952.09;4965249;28;20488;-64
2022/01/16 01:40:57;;;;;;;8.05;2.40;;;;;;;0.38;54.84;95943.69;4964726;28;20476;-62
2022/01/16 01:51:44;;;;;;;14.38;2.70;;;;;;;0.36;54.62;95961.31;4956415;28;20196;-61
2022/01/16 01:54:10;;;;;;;10.18;2.33;;;;;;;0.39;53.15;96002.16;4971979;28;20403;-62
2022/01/16 01:56:37;;;;;;;11.00;2.90;;;;;;;0.39;50.69;96007.41;4961137;28;20084;-63
2022/01/16 01:59:02;;;;;;;22.15;2.85;;;;;;;0.13;49.40;96025.72;4960026;28;20146;-63
2022/01/16 02:01:28;;;;;;;42.28;3.10;;;;;;;-0.16;52.80;96018.88;4954482;28;20115;-64
2022/01/16 02:03:54;;;;;;;30.55;2.80;;;;;;;-0.73;57.95;96032.06;4963842;28;20079;-64
2022/01/16 02:06:30;;;;;;;46.08;2.92;;;;;;;-0.33;55.99;96012.13;4955195;28;20100;-61
2022/01/16 02:08:57;;;;;;;8.70;2.50;;;;;;;-0.03;56.64;96013.63;4965976;28;20504;-63
2022/01/16 02:11:25;;;;;;;14.23;2.40;;;;;;;-0.02;54.77;96019.72;4970096;28;20083;-63
2022/01/16 02:14:04;;;;;;;55.30;3.20;;;;;;;-0.60;54.64;96023.44;4952388;28;20521;-63
2022/01/16 02:35:36;;;;;;;39.60;3.08;;;;;;;-0.84;58.79;96060.66;4953151;28;20173;-63
2022/01/16 02:38:03;;;;;;;190.30;5.55;;;;;;;-1.64;56.15;96059.28;4963653;28;20107;-63
2022/01/16 02:40:29;;;;;;;318.45;7.82;;;;;;;-1.83;56.67;96042.13;4975551;28;20578;-62
2022/01/16 02:42:54;;;;;;;120.50;5.60;;;;;;;-2.39;61.40;96025.25;4965036;28;20479;-60
2022/01/16 02:45:29;;;;;;;10.95;2.45;;;;;;;-1.44;62.17;96010.25;4954242;28;20150;-63
2022/01/16 02:47:56;;;;;;;11.15;2.55;;;;;;;-0.98;57.57;96009.19;4962182;28;20578;-64
2022/01/16 02:50:22;;;;;;;28.67;3.20;;;;;;;-0.66;58.33;96011.56;4964428;28;20139;-65
2022/01/16 02:52:47;;;;;;;32.70;3.00;;;;;;;-0.93;58.50;96007.16;4962108;28;20584;-61
2022/01/16 02:55:13;;;;;;;16.75;2.33;;;;;;;-0.57;58.97;95999.69;4963977;28;20170;-63
2022/01/16 02:57:39;;;;;;;47.88;3.35;;;;;;;-0.34;55.89;96000.81;4971040;28;20231;-63
2022/01/16 03:00:05;;;;;;;34.13;3.10;;;;;;;-0.12;55.01;95990.69;4953065;28;20812;-63
2022/01/16 03:02:30;;;;;;;131.75;6.80;;;;;;;-0.13;51.67;95999.50;4951603;28;20108;-63
2022/01/16 03:04:56;;;;;;;238.32;7.07;;;;;;;-1.42;54.61;96008.38;4961861;28;20087;-65
2022/01/16 03:07:22;;;;;;;269.88;29.38;;;;;;;-0.65;52.35;96005.41;4963367;28;20146;-62
2022/01/16 03:10:47;;;;;;;28.15;3.10;;;;;;;-0.58;54.43;96003.22;4952433;28;20107;-63
2022/01/16 03:13:00;;;;;;;58.20;3.70;;;;;;;-0.79;54.90;96008.03;4963309;28;20118;-63
2022/01/16 03:15:26;;;;;;;13.32;2.63;;;;;;;-0.84;54.69;96011.78;4966266;28;20091;-60
2022/01/16 03:23:07;;;;;;;102.43;6.13;;;;;;;-0.91;52.71;96012.28;4959167;28;20579;-61
2022/01/16 03:25:33;;;;;;;70.30;3.88;;;;;;;-1.30;54.22;96002.41;4962718;28;20103;-63
2022/01/16 03:27:58;;;;;;;143.55;5.25;;;;;;;-1.41;55.25;96015.28;4970486;28;20075;-65
2022/01/16 03:30:23;;;;;;;85.60;4.03;;;;;;;-0.99;53.84;96003.13;4959548;28;20115;-63
2022/01/16 03:32:49;;;;;;;188.40;6.35;;;;;;;-1.91;56.22;96008.63;4963204;28;20080;-63
2022/01/16 03:35:14;;;;;;;13.27;2.55;;;;;;;-1.50;55.33;96012.31;4952347;28;20087;-64
2022/01/16 03:37:40;;;;;;;230.20;6.07;;;;;;;-1.98;57.30;95991.63;4963669;28;20129;-60
2022/01/16 03:40:10;;;;;;;11.65;2.28;;;;;;;-1.60;55.79;95980.69;4953488;28;20090;-65
2022/01/16 03:42:36;;;;;;;64.57;3.30;;;;;;;-1.49;57.50;95976.59;4962649;28;20135;-61
2022/01/16 03:45:03;;;;;;;199.50;6.35;;;;;;;-2.38;57.43;95973.91;4959800;28;20099;-63
2022/01/16 03:47:28;;;;;;;147.18;5.05;;;;;;;-3.00;61.29;95965.19;4964329;28;20194;-61
2022/01/16 03:49:53;;;;;;;40.00;2.80;;;;;;;-2.38;62.34;95969.53;4949907;28;20215;-62
2022/01/16 03:52:19;;;;;;;118.40;4.18;;;;;;;-2.43;59.64;95958.53;4954829;28;20130;-64
2022/01/16 03:54:44;;;;;;;138.75;5.07;;;;;;;-1.65;60.42;95969.69;4961877;28;20103;-62
2022/01/16 03:57:10;;;;;;;68.28;3.72;;;;;;;-1.21;54.26;95974.88;4962762;28;20472;-62
2022/01/16 03:59:35;;;;;;;289.08;8.55;;;;;;;-2.65;58.04;95974.59;4954869;28;20087;-60
2022/01/16 04:02:01;;;;;;;251.82;7.15;;;;;;;-1.98;55.93;95970.75;4956921;28;20108;-64
2022/01/16 04:04:26;;;;;;;37.60;2.67;;;;;;;-1.89;60.03;95965.00;4948862;28;20098;-62
2022/01/16 04:06:52;;;;;;;233.45;7.20;;;;;;;-1.98;57.02;95963.78;4957904;28;20193;-62
2022/01/16 04:09:17;;;;;;;116.03;5.03;;;;;;;-2.55;59.25;95964.47;4962456;28;20824;-60
2022/01/16 04:11:52;;;;;;;218.60;7.15;;;;;;;-3.32;62.86;95959.97;4963901;28;20087;-64
2022/01/16 04:14:24;;;;;;;237.32;7.43;;;;;;;-2.58;59.21;95962.84;4957987;28;20421;-61
2022/01/16 04:16:51;;;;;;;152.50;5.57;;;;;;;-2.03;58.70;95964.97;4962642;28;20079;-63
2022/01/16 04:19:17;;;;;;;237.13;7.65;;;;;;;-1.89;57.58;95961.53;4962121;28;20111;-63
2022/01/16 04:21:42;;;;;;;160.45;5.43;;;;;;;-1.69;56.26;95957.75;4950190;28;20177;-63
2022/01/16 04:24:07;;;;;;;22.35;2.75;;;;;;;-1.31;55.83;95961.53;4963067;28;20559;-64
2022/01/16 04:26:33;;;;;;;43.80;3.25;;;;;;;-1.19;55.51;95962.53;4954344;28;20118;-64
2022/01/16 04:28:58;;;;;;;26.70;2.90;;;;;;;-1.11;55.17;95949.00;4962849;28;20111;-63
2022/01/16 04:31:25;;;;;;;103.10;3.67;;;;;;;-0.97;57.04;95956.84;4963019;28;20087;-64
2022/01/16 04:33:50;;;;;;;59.83;3.20;;;;;;;-1.36;59.57;95946.16;4961643;28;20122;-64
2022/01/16 04:36:15;;;;;;;140.70;5.18;;;;;;;-1.48;59.70;95952.97;4951987;28;20083;-65
2022/01/16 04:38:46;;;;;;;57.28;4.32;;;;;;;-0.92;55.24;95958.34;4958436;28;20448;-64
2022/01/16 04:43:56;;;;;;;214.60;5.88;;;;;;;-0.87;54.38;95951.88;4962685;28;20464;-64
2022/01/16 04:46:23;;;;;;;14.60;2.58;;;;;;;-0.81;56.95;95950.66;4963791;28;20103;-61
2022/01/16 04:48:48;;;;;;;39.70;3.00;;;;;;;-0.70;54.38;95957.78;4973404;28;20084;-63
2022/01/16 04:51:14;;;;;;;238.68;6.53;;;;;;;-1.55;57.18;95950.81;4961296;28;20118;-64
2022/01/16 04:53:39;;;;;;;78.63;3.38;;;;;;;-0.98;58.59;95955.13;4966421;28;20115;-61
2022/01/16 04:56:05;;;;;;;109.40;3.88;;;;;;;-0.73;55.38;95960.59;4947700;28;20079;-64
2022/01/16 04:58:31;;;;;;;50.55;2.83;;;;;;;-0.66;56.27;95961.88;4962192;28;20104;-65
2022/01/16 05:00:56;;;;;;;165.70;5.55;;;;;;;-0.84;53.43;95958.69;4958386;28;20775;-63
2022/01/16 05:03:23;;;;;;;147.20;4.90;;;;;;;-0.67;52.46;95972.44;4966669;28;20130;-63
2022/01/16 05:05:48;;;;;;;93.55;3.67;;;;;;;-1.03;53.82;95983.34;4965108;28;20688;-63
2022/01/16 05:08:14;;;;;;;77.80;3.05;;;;;;;-1.46;55.80;95972.00;4962032;28;20083;-63
2022/01/16 05:10:39;;;;;;;71.72;3.35;;;;;;;-2.18;57.86;95975.38;4961702;28;20103;-63
2022/01/16 05:13:28;;;;;;;221.25;6.05;;;;;;;-2.07;57.53;95972.13;4950550;28;20114;-64
2022/01/16 05:18:36;;;;;;;170.40;6.60;;;;;;;-2.09;58.32;95958.34;4957464;28;20122;-61
2022/01/16 05:21:01;;;;;;;261.48;7.25;;;;;;;-2.15;57.54;95953.47;4962777;28;20119;-63
2022/01/16 05:23:27;;;;;;;127.50;5.85;;;;;;;-1.78;58.08;95951.31;4968104;28;20173;-64
2022/01/16 05:25:52;;;;;;;429.92;10.25;;;;;;;-2.28;57.63;95948.97;4950164;28;20100;-63
2022/01/16 05:28:18;;;;;;;185.55;10.52;;;;;;;-1.93;60.42;95967.88;4952080;28;20754;-62
2022/01/16 05:30:43;;;;;;;161.00;5.68;;;;;;;-1.86;58.44;95963.97;4958674;28;20107;-63
2022/01/16 05:33:09;;;;;;;80.43;4.47;;;;;;;-1.51;58.19;95942.72;4957660;28;20123;-64
2022/01/16 05:35:34;;;;;;;244.57;6.78;;;;;;;-1.49;56.73;95955.69;4973250;28;20564;-65
2022/01/16 05:38:00;;;;;;;154.55;6.07;;;;;;;-1.60;56.24;95966.78;4965707;28;20118;-63
2022/01/16 05:40:25;;;;;;;72.82;3.78;;;;;;;-1.23;55.57;95963.66;4964568;28;20339;-63
2022/01/16 05:42:51;;;;;;;290.00;7.60;;;;;;;-1.87;56.02;95973.56;4965764;28;20106;-62
2022/01/16 05:45:16;;;;;;;189.80;6.35;;;;;;;-1.77;57.33;95979.06;4965584;28;20103;-59
2022/01/16 05:47:41;;;;;;;26.42;3.83;;;;;;;-1.87;57.64;95983.16;4966070;28;20094;-61
2022/01/16 05:50:07;;;;;;;241.10;8.45;;;;;;;-1.94;56.07;95977.47;4953433;28;20099;-62
2022/01/16 05:52:33;;;;;;;372.55;11.23;;;;;;;-2.50;57.26;95991.97;4965598;28;20153;-63
2022/01/16 05:54:58;;;;;;;182.82;6.22;;;;;;;-2.22;57.25;95993.91;4965812;28;20103;-62
2022/01/16 05:57:23;;;;;;;181.77;5.82;;;;;;;-2.52;58.08;95993.81;4965321;28;20122;-62
2022/01/16 05:59:49;;;;;;;406.45;10.40;;;;;;;-2.81;59.04;95996.28;4960385;28;20147;-62
2022/01/16 06:02:15;;;;;;;290.70;8.95;;;;;;;-3.01;59.42;96000.84;4955645;28;20736;-60
2022/01/16 06:04:41;;;;;;;717.17;18.50;;;;;;;-3.55;61.19;95988.94;4959333;28;20094;-63
2022/01/16 06:07:06;;;;;;;417.73;12.98;;;;;;;-3.41;60.89;95989.94;4961828;28;20484;-63
2022/01/16 06:09:32;;;;;;;490.77;14.50;;;;;;;-3.52;62.66;95990.53;4965107;28;20098;-62
2022/01/16 06:11:57;;;;;;;252.30;8.80;;;;;;;-2.79;59.75;95978.78;4965312;28;20448;-62
2022/01/16 06:14:23;;;;;;;400.08;12.18;;;;;;;-2.57;58.35;95980.19;4976333;28;20177;-64
2022/01/16 06:16:49;;;;;;;239.20;7.57;;;;;;;-2.58;58.76;95988.94;4964881;28;20090;-63
2022/01/16 06:19:15;;;;;;;233.35;7.03;;;;;;;-3.05;60.43;95988.06;4952567;28;20431;-63
2022/01/16 06:21:40;;;;;;;145.70;5.80;;;;;;;-2.87;60.74;95986.19;4976242;28;20110;-62
2022/01/16 06:24:06;;;;;;;287.90;8.52;;;;;;;-3.61;62.04;95986.63;4965418;28;20484;-63
2022/01/16 06:26:31;;;;;;;298.48;9.50;;;;;;;-3.80;63.82;95995.38;4965207;28;20157;-63
2022/01/16 06:28:58;;;;;;;775.63;19.02;;;;;;;-4.29;63.99;95993.50;4964719;28;20135;-61
2022/01/16 06:31:23;;;;;;;183.88;6.95;;;;;;;-3.69;63.09;96001.81;4965049;28;20177;-59
2022/01/16 06:33:50;;;;;;;178.55;6.93;;;;;;;-3.36;61.80;96000.94;4963496;28;20107;-62
2022/01/16 06:36:16;;;;;;;121.53;5.60;;;;;;;-3.53;62.51;96013.09;4965269;28;20076;-60
2022/01/16 06:38:41;;;;;;;216.88;7.75;;;;;;;-3.25;61.34;96017.78;4965003;28;20162;-61
2022/01/16 06:41:06;;;;;;;350.60;10.48;;;;;;;-2.75;59.98;96024.59;4964370;28;20185;-62
2022/01/16 06:43:33;;;;;;;206.75;6.97;;;;;;;-2.74;59.68;96022.84;4965052;28;20086;-63
2022/01/16 06:45:59;;;;;;;252.05;9.52;;;;;;;-2.93;60.80;96020.41;4964457;28;20575;-61
2022/01/16 06:48:24;;;;;;;608.65;18.80;;;;;;;-3.40;60.93;96028.06;4963439;28;20134;-63
2022/01/16 06:50:49;;;;;;;75.05;5.38;;;;;;;-2.39;59.01;96014.81;4964062;28;20530;-61
2022/01/16 06:53:15;;;;;;;530.08;15.43;;;;;;;-2.73;59.57;96027.13;4964789;28;20162;-62
2022/01/16 06:55:40;;;;;;;524.15;13.13;;;;;;;-3.05;60.48;96027.13;4964724;28;20114;-61
2022/01/16 06:58:06;;;;;;;58.28;4.03;;;;;;;-2.60;59.24;96026.44;4964435;28;20484;-62
2022/01/16 07:00:32;;;;;;;80.88;5.78;;;;;;;-2.47;59.42;96029.22;4960608;28;20095;-62
2022/01/16 07:02:57;;;;;;;16.20;4.40;;;;;;;-2.83;60.07;96039.84;4964310;28;20620;-61
2022/01/16 07:05:22;;;;;;;124.63;8.25;;;;;;;-2.77;60.18;96031.69;4964431;28;20103;-62
2022/01/16 07:07:48;;;;;;;57.33;6.88;;;;;;;-3.01;61.38;96033.84;4964773;28;20488;-62
2022/01/16 07:10:13;;;;;;;50.70;7.70;;;;;;;-3.68;62.57;96045.13;4964234;28;20107;-60
2022/01/16 07:12:39;;;;;;;55.83;7.05;;;;;;;-4.06;64.18;96041.81;4964738;28;20541;-61
2022/01/16 07:15:04;;;;;;;27.33;6.97;;;;;;;-4.24;65.76;96043.56;4963516;28;20099;-61
2022/01/16 07:17:30;;;;;;;124.15;9.75;;;;;;;-4.17;65.14;96055.31;4975769;28;20123;-63
2022/01/16 07:19:55;;;;;;;43.10;7.35;;;;;;;-3.99;65.06;96062.28;4959416;28;20123;-62
2022/01/16 07:22:21;;;;;;;168.15;12.55;;;;;;;-3.82;63.68;96053.63;4964028;28;20095;-61
2022/01/16 07:24:48;;;;;;;93.65;10.35;;;;;;;-3.44;64.14;96052.59;4967925;28;20097;-62
2022/01/16 07:27:13;;;;;;;55.67;8.77;;;;;;;-3.20;62.45;96050.47;4967774;28;20541;-62
2022/01/16 07:29:39;;;;;;;60.63;8.18;;;;;;;-3.48;63.56;96056.28;4963929;28;20154;-62
2022/01/16 07:32:06;;;;;;;174.10;11.88;;;;;;;-3.44;63.34;96037.81;4964312;28;20071;-62
2022/01/16 07:34:32;;;;;;;19.08;7.57;;;;;;;-3.20;62.82;96037.44;4964155;28;20111;-63
2022/01/16 07:36:57;;;;;;;235.55;12.95;;;;;;;-3.22;62.52;96041.06;4963752;28;20115;-61
2022/01/16 07:39:23;;;;;;;273.58;16.23;;;;;;;-3.75;64.15;96085.41;4964199;28;20114;-64
2022/01/16 07:41:48;;;;;;;138.75;12.65;;;;;;;-3.79;66.00;96085.56;4963686;28;20119;-63
2022/01/16 07:44:14;;;;;;;234.73;15.23;;;;;;;-3.92;65.67;96097.50;4964193;28;20111;-62
2022/01/16 07:46:39;;;;;;;88.35;9.63;;;;;;;-4.13;66.63;96075.97;4963709;28;20107;-60
2022/01/16 07:49:04;;;;;;;178.57;12.13;;;;;;;-3.77;65.36;96088.06;4970201;28;20526;-63
2022/01/16 07:51:31;;;;;;;499.65;22.08;;;;;;;-4.36;67.18;96086.59;4964136;28;20193;-64
2022/01/16 07:53:57;;;;;;;119.28;11.60;;;;;;;-3.75;65.46;96090.59;4960317;28;20138;-63
2022/01/16 07:56:22;;;;;;;378.13;20.27;;;;;;;-3.68;64.58;96086.78;4959731;28;20376;-62
2022/01/16 07:58:48;;;;;;;223.70;14.57;;;;;;;-3.76;64.73;96094.13;4958113;28;20112;-62
2022/01/16 08:01:13;;;;;;;24.30;8.45;;;;;;;-3.81;65.42;96081.34;4963501;28;20154;-60
2022/01/16 08:03:39;;;;;;;194.63;14.25;;;;;;;-3.91;65.98;96076.59;4961967;28;20426;-61
2022/01/16 08:06:04;;;;;;;175.20;13.35;;;;;;;-3.58;64.62;96077.59;4963104;28;20581;-59
2022/01/16 08:08:30;;;;;;;693.80;23.95;;;;;;;-3.56;63.08;96080.94;4967971;28;20105;-60
2022/01/16 08:10:55;;;;;;;111.80;10.60;;;;;;;-2.81;63.65;96076.25;4970923;28;20111;-61
2022/01/16 08:13:20;;;;;;;370.48;16.55;;;;;;;-2.77;61.07;96075.16;4962895;28;20516;-61
2022/01/16 08:15:46;;;;;;;189.63;12.38;;;;;;;-2.45;61.45;96069.09;4960215;28;20143;-59
2022/01/16 08:18:11;;;;;;;605.65;20.42;;;;;;;-2.28;60.42;96079.41;4949675;28;20111;-59
2022/01/16 08:20:37;;;;;;;249.50;11.40;;;;;;;-2.38;60.06;96073.03;4960963;28;20276;-61
2022/01/16 08:23:02;;;;;;;45.88;7.78;;;;;;;-2.38;60.54;96080.84;4959103;28;20201;-61
2022/01/16 08:25:28;;;;;;;488.20;18.77;;;;;;;-2.90;59.85;96077.56;4963542;28;20111;-61
2022/01/16 08:27:53;;;;;;;249.77;13.55;;;;;;;-2.14;59.42;96070.81;4971867;28;20082;-61
2022/01/16 08:30:19;;;;;;;321.75;15.73;;;;;;;-3.02;61.43;96077.31;4963054;28;20343;-61
2022/01/16 08:32:44;;;;;;;694.10;22.70;;;;;;;-3.41;63.44;96086.28;4966307;28;20179;-62
2022/01/16 08:35:10;;;;;;;718.85;25.25;;;;;;;-2.87;60.35;96072.19;4965751;28;20078;-60
2022/01/16 08:37:36;;;;;;;561.85;19.10;;;;;;;-3.22;62.05;96087.94;4958411;28;20469;-61
2022/01/16 08:40:01;;;;;;;472.77;18.10;;;;;;;-3.59;63.57;96090.69;4962791;28;20090;-62
2022/01/16 08:42:27;;;;;;;306.75;14.75;;;;;;;-3.32;63.34;96090.19;4963520;28;20388;-61
2022/01/16 08:44:52;;;;;;;663.42;24.60;;;;;;;-3.86;64.92;96092.00;4966754;28;20492;-60
2022/01/16 08:47:18;;;;;;;195.82;13.65;;;;;;;-3.59;64.57;96085.47;4957478;28;20565;-61
2022/01/16 08:49:43;;;;;;;158.73;12.73;;;;;;;-3.21;62.29;96089.63;4963686;28;20595;-59
2022/01/16 08:52:09;;;;;;;178.85;14.10;;;;;;;-2.76;60.63;96085.50;4969643;28;20323;-61
2022/01/16 08:54:34;;;;;;;82.30;10.73;;;;;;;-2.75;61.10;96087.16;4965950;28;20114;-61
2022/01/16 08:57:01;;;;;;;150.98;14.13;;;;;;;-2.62;60.20;96096.94;4966534;28;20110;-60
2022/01/16 08:59:27;;;;;;;225.10;17.48;;;;;;;-2.51;60.50;96098.97;4963858;28;20141;-60
2022/01/16 09:01:52;;;;;;;22.50;8.40;;;;;;;-2.29;59.05;96098.59;4966434;28;20182;-60
2022/01/16 09:04:17;;;;;;;40.03;11.57;;;;;;;-2.10;58.43;96100.19;4966848;28;20541;-59
2022/01/16 09:06:43;;;;;;;344.65;21.88;;;;;;;-2.33;58.24;96115.34;4957175;28;21390;-61
2022/01/16 09:09:08;;;;;;;77.57;13.93;;;;;;;-1.78;58.03;96107.94;4956101;28;20843;-61
2022/01/16 09:11:34;;;;;;;164.05;16.50;;;;;;;-1.79;58.45;96110.63;4962470;28;20129;-61
2022/01/16 09:13:59;;;;;;;207.23;17.10;;;;;;;-2.01;58.16;96115.31;4961249;28;20138;-58
2022/01/16 09:16:24;;;;;;;149.20;15.98;;;;;;;-1.95;58.26;96123.72;4962789;28;20079;-58
2022/01/16 09:18:50;;;;;;;231.93;18.17;;;;;;;-2.19;58.96;96125.03;4962097;28;20170;-60
2022/01/16 09:21:16;;;;;;;76.78;13.00;;;;;;;-1.58;59.38;96124.22;4962173;28;20316;-58
2022/01/16 09:23:43;;;;;;;220.77;17.50;;;;;;;-1.62;58.18;96127.94;4965932;28;20086;-61
2022/01/16 09:26:09;;;;;;;88.78;16.95;;;;;;;-1.84;58.53;96129.16;4950770;28;20099;-60
2022/01/16 09:28:34;;;;;;;19.67;9.95;;;;;;;-1.59;58.02;96135.59;4961654;28;20084;-61
2022/01/16 09:30:59;;;;;;;26.45;14.25;;;;;;;-1.78;58.34;96134.03;4961553;28;20110;-61
2022/01/16 09:33:25;;;;;;;26.33;15.07;;;;;;;-1.80;58.96;96133.28;4962068;28;20118;-61
2022/01/16 09:35:50;;;;;;;19.88;11.55;;;;;;;-2.88;61.97;96156.53;4961880;28;20097;-59
2022/01/16 09:38:17;;;;;;;19.25;11.00;;;;;;;-3.10;63.18;96159.38;4960166;28;20115;-58
2022/01/16 09:40:44;;;;;;;21.25;11.23;;;;;;;-3.48;65.85;96150.84;4960394;28;20492;-59
2022/01/16 09:43:09;;;;;;;22.63;12.00;;;;;;;-3.32;65.10;96157.91;4953939;28;20529;-59
2022/01/16 09:45:34;;;;;;;21.90;11.48;;;;;;;-3.02;64.83;96160.69;4953753;28;20107;-59
2022/01/16 09:48:01;;;;;;;25.00;12.05;;;;;;;-3.26;65.63;96154.97;4961187;28;20075;-62
2022/01/16 09:50:26;;;;;;;21.05;11.88;;;;;;;-3.59;67.38;96159.22;4959739;28;20439;-60
2022/01/16 09:52:52;;;;;;;26.88;14.30;;;;;;;-3.78;67.52;96167.06;4961244;28;20130;-61
2022/01/16 09:55:18;;;;;;;17.10;8.65;;;;;;;-3.68;67.85;96163.13;4962253;28;20081;-60
2022/01/16 09:57:43;;;;;;;25.08;13.23;;;;;;;-4.11;69.71;96176.41;4961084;28;20115;-59
2022/01/16 10:00:12;;;;;;;19.10;10.95;;;;;;;-4.04;69.80;96172.63;4950692;28;20099;-61
2022/01/16 10:02:37;;;;;;;17.60;10.57;;;;;;;-3.57;68.28;96172.16;4961237;28;20114;-61
2022/01/16 10:05:20;;;;;;;22.17;12.88;;;;;;;-3.76;68.90;96175.66;4960073;28;20123;-61
2022/01/16 10:07:45;;;;;;;24.55;13.40;;;;;;;-4.12;69.97;96176.50;4958741;28;20075;-60
2022/01/16 10:10:12;;;;;;;24.90;14.77;;;;;;;-4.57;72.46;96187.22;4960091;28;20451;-58
2022/01/16 10:12:45;;;;;;;20.77;12.10;;;;;;;-4.63;72.60;96190.94;4961212;28;20093;-59
2022/01/16 10:15:18;;;;;;;22.88;12.80;;;;;;;-4.50;72.67;96196.41;4959850;28;20552;-60
2022/01/16 10:17:45;;;;;;;31.95;17.35;;;;;;;-4.92;74.23;96179.22;4961092;28;20669;-59
2022/01/16 10:20:10;;;;;;;35.13;16.15;;;;;;;-4.76;72.61;96179.41;4960980;28;20094;-60
2022/01/16 10:22:37;;;;;;;24.02;13.25;;;;;;;-4.75;73.59;96184.53;4961166;28;20408;-61
2022/01/16 10:25:04;;;;;;;29.13;15.27;;;;;;;-4.58;73.19;96190.72;4960804;28;20107;-62
2022/01/16 10:27:33;;;;;;;30.67;14.77;;;;;;;-4.90;74.68;96196.44;4960947;28;20094;-59
2022/01/16 10:29:59;;;;;;;33.85;15.77;;;;;;;-4.94;75.00;96184.50;4959349;28;20103;-59
2022/01/16 10:32:27;;;;;;;28.58;17.73;;;;;;;-4.91;74.75;96179.16;4961241;28;20601;-62
2022/01/16 10:34:54;;;;;;;29.63;15.93;;;;;;;-5.01;75.10;96181.31;4963117;28;20577;-63
2022/01/16 10:37:27;;;;;;;30.35;15.15;;;;;;;-5.23;76.45;96187.44;4964426;28;20478;-62
2022/01/16 10:40:09;;;;;;;30.27;15.15;;;;;;;-5.05;75.91;96177.19;4963854;28;20083;-63
2022/01/16 10:42:34;;;;;;;28.90;16.23;;;;;;;-5.22;76.95;96190.88;4976866;28;20447;-59
2022/01/16 10:45:11;;;;;;;33.40;18.40;;;;;;;-5.22;76.52;96172.72;4965236;28;20109;-60
2022/01/16 10:47:39;;;;;;;28.98;14.50;;;;;;;-4.82;75.41;96170.94;4964763;28;20082;-62
2022/01/16 10:50:12;;;;;;;32.85;17.05;;;;;;;-4.91;75.33;96176.56;4964466;28;20119;-62
2022/01/16 10:53:04;;;;;;;23.38;12.65;;;;;;;-4.40;73.55;96175.19;4964694;28;20122;-62
2022/01/16 10:55:47;;;;;;;26.38;14.32;;;;;;;-4.64;74.27;96175.41;4964394;28;20366;-59
2022/01/16 10:58:15;;;;;;;27.52;15.88;;;;;;;-4.85;74.73;96181.47;4964403;28;20462;-62
2022/01/16 11:00:53;;;;;;;28.13;15.18;;;;;;;-4.84;74.89;96188.38;4951997;28;20579;-62
2022/01/16 11:03:19;;;;;;;35.13;20.42;;;;;;;-5.22;76.35;96180.50;4964616;28;20671;-62
2022/01/16 11:05:45;;;;;;;33.47;19.90;;;;;;;-5.22;76.52;96185.69;4977760;28;20194;-62
2022/01/16 11:08:16;;;;;;;27.83;13.98;;;;;;;-4.74;75.73;96183.63;4964823;28;20083;-62
2022/01/16 11:10:43;;;;;;;26.88;13.52;;;;;;;-4.60;74.46;96196.00;4963914;28;20687;-61
2022/01/16 11:13:10;;;;;;;25.63;12.70;;;;;;;-4.41;74.05;96187.38;4974495;28;20111;-61
2022/01/16 11:15:38;;;;;;;37.08;18.08;;;;;;;-4.58;74.14;96182.94;4966571;28;20553;-60
2022/01/16 11:18:04;;;;;;;22.40;12.05;;;;;;;-4.75;75.28;96181.09;4963968;28;20113;-63
2022/01/16 11:20:33;;;;;;;31.67;17.77;;;;;;;-4.77;75.22;96182.91;4964378;28;20075;-61
2022/01/16 11:23:06;;;;;;;32.42;16.42;;;;;;;-4.31;73.39;96173.00;4964089;28;20575;-63
2022/01/16 11:25:36;;;;;;;21.35;11.25;;;;;;;-3.93;72.48;96166.06;4964168;28;20095;-61
2022/01/16 11:28:15;;;;;;;22.40;12.73;;;;;;;-3.77;71.15;96179.16;4964495;28;20089;-62
2022/01/16 11:30:47;;;;;;;21.88;9.80;;;;;;;-3.66;71.42;96173.44;4962857;28;20118;-63
2022/01/16 11:33:13;;;;;;;18.08;10.45;;;;;;;-3.88;71.67;96173.66;4964269;28;20099;-64
2022/01/16 11:35:49;;;;;;;31.55;14.43;;;;;;;-3.69;70.24;96173.59;4964321;28;20559;-63
2022/01/16 11:38:14;;;;;;;21.23;10.70;;;;;;;-3.58;70.86;96165.25;4962616;28;20114;-61
2022/01/16 11:40:47;;;;;;;23.90;12.15;;;;;;;-3.09;69.08;96174.13;4946826;28;20079;-64
2022/01/16 11:43:12;;;;;;;29.63;15.18;;;;;;;-3.35;68.30;96171.91;4964013;28;20119;-62
2022/01/16 11:45:55;;;;;;;28.42;13.60;;;;;;;-3.55;69.53;96175.50;4972528;28;20611;-63
2022/01/16 11:48:36;;;;;;;19.95;9.50;;;;;;;-2.96;68.26;96172.56;4965799;28;20615;-64
2022/01/16 11:51:03;;;;;;;24.70;14.27;;;;;;;-2.57;65.98;96177.50;4963358;28;20123;-63
2022/01/16 11:54:06;;;;;;;22.75;9.05;;;;;;;-2.36;65.62;96175.50;4960234;28;20111;-61
2022/01/16 11:56:40;;;;;;;21.48;9.85;;;;;;;-1.72;63.45;96170.22;4952720;28;20079;-63
2022/01/16 11:59:12;;;;;;;20.92;11.90;;;;;;;-1.26;62.19;96176.34;4960030;28;20600;-64
2022/01/16 12:01:47;;;;;;;19.90;11.48;;;;;;;-1.64;62.64;96179.41;4965535;28;20201;-63
2022/01/16 12:04:30;;;;;;;21.48;10.32;;;;;;;-1.55;62.19;96178.91;4954995;28;20106;-63